Time;durP1;ratioP1;P1;durP2;ratioP2;P2;SDS_P1;SDS_P2;PMS_P1;PMS_P2;Temp;Humidity;BMP_temperature;BMP_pressure;BME280_temperature;BME280_humidity;BME280_pressure;Samples;Min_cycle;Max_cycle;Signal;HPM_P1;HPM_P2
2022/07/28 00:02:46;;;;;;;7.53;6.32;;;;;;;;;;10156285;28;20042;-56
2022/07/28 00:07:45;;;;;;;6.38;5.78;;;;;;;;;;10156885;28;20058;-57
2022/07/28 00:12:45;;;;;;;9.20;6.40;;;;;;;;;;10175012;28;20076;-56
2022/07/28 00:17:43;;;;;;;10.15;6.05;;;;;;;;;;10195789;28;20092;-58
2022/07/28 00:22:41;;;;;;;6.13;5.30;;;;;;;;;;10196349;28;20062;-56
2022/07/28 00:27:40;;;;;;;10.38;6.10;;;;;;;;;;10194929;28;20089;-58
2022/07/28 00:32:40;;;;;;;5.45;5.00;;;;;;;;;;10195051;28;20187;-57
2022/07/28 00:37:39;;;;;;;9.98;5.70;;;;;;;;;;10195177;28;20084;-56
2022/07/28 00:42:37;;;;;;;6.68;5.03;;;;;;;;;;10194581;28;20052;-56
2022/07/28 00:47:35;;;;;;;5.57;5.07;;;;;;;;;;10194616;28;20034;-56
2022/07/28 00:52:35;;;;;;;5.75;4.97;;;;;;;;;;10194810;28;20077;-57
2022/07/28 00:57:34;;;;;;;9.82;4.53;;;;;;;;;;10194177;28;20080;-57
2022/07/28 01:02:32;;;;;;;9.40;5.43;;;;;;;;;;10194111;28;20085;-58
2022/07/28 01:07:33;;;;;;;5.60;4.97;;;;;;;;;;10193991;28;20044;-58
2022/07/28 01:12:41;;;;;;;5.20;4.72;;;;;;;;;;10194248;28;20086;-58
2022/07/28 01:17:47;;;;;;;4.78;4.38;;;;;;;;;;10193956;28;20042;-56
2022/07/28 01:23:01;;;;;;;4.95;4.47;;;;;;;;;;10193931;28;20078;-57
2022/07/28 01:28:06;;;;;;;4.80;4.25;;;;;;;;;;10193908;28;20054;-58
2022/07/28 01:33:09;;;;;;;5.82;4.72;;;;;;;;;;10194178;28;20503;-57
2022/07/28 01:38:10;;;;;;;6.97;4.93;;;;;;;;;;10193676;28;20114;-59
2022/07/28 01:43:11;;;;;;;7.30;4.53;;;;;;;;;;10193755;28;20081;-59
2022/07/28 01:48:12;;;;;;;5.53;4.50;;;;;;;;;;10191531;28;20053;-59
2022/07/28 01:53:11;;;;;;;6.32;4.85;;;;;;;;;;10193893;28;20077;-59
2022/07/28 01:58:11;;;;;;;7.00;4.47;;;;;;;;;;10196019;28;20448;-59
2022/07/28 02:03:10;;;;;;;8.45;4.85;;;;;;;;;;10201189;28;20072;-59
2022/07/28 02:08:11;;;;;;;9.55;4.65;;;;;;;;;;10200253;28;20419;-59
2022/07/28 02:13:10;;;;;;;5.85;3.97;;;;;;;;;;10200504;28;20069;-59
2022/07/28 02:18:10;;;;;;;4.55;4.05;;;;;;;;;;10199096;28;20057;-59
2022/07/28 02:23:13;;;;;;;6.00;3.72;;;;;;;;;;10200426;28;20085;-59
2022/07/28 02:28:12;;;;;;;4.90;4.10;;;;;;;;;;10198936;28;20130;-59
2022/07/28 02:33:12;;;;;;;7.07;4.00;;;;;;;;;;10199725;28;20084;-59
2022/07/28 02:38:20;;;;;;;7.32;3.95;;;;;;;;;;10199387;28;20042;-59
2022/07/28 02:43:22;;;;;;;6.05;4.25;;;;;;;;;;10169687;28;20074;-59
2022/07/28 02:48:23;;;;;;;6.18;4.00;;;;;;;;;;10159623;28;20069;-60
2022/07/28 02:53:23;;;;;;;;;;;;;;;;;;10159099;28;20077;-59
2022/07/28 02:58:24;;;;;;;9.38;3.85;;;;;;;;;;10158110;28;19961;-59
2022/07/28 03:03:22;;;;;;;4.15;3.33;;;;;;;;;;10158936;28;20035;-59
2022/07/28 03:08:21;;;;;;;5.90;3.45;;;;;;;;;;10157964;28;20054;-59
2022/07/28 03:13:20;;;;;;;7.85;3.53;;;;;;;;;;10157276;28;20080;-59
2022/07/28 03:18:20;;;;;;;4.43;3.35;;;;;;;;;;10158128;28;20054;-59
2022/07/28 03:23:19;;;;;;;6.40;3.05;;;;;;;;;;10184447;28;20070;-58
2022/07/28 03:28:18;;;;;;;3.53;3.10;;;;;;;;;;10162995;28;20074;-59
2022/07/28 03:33:16;;;;;;;8.30;3.40;;;;;;;;;;10187015;28;20519;-59
2022/07/28 03:38:20;;;;;;;5.65;3.25;;;;;;;;;;10174832;28;20069;-58
2022/07/28 03:43:18;;;;;;;;;;;;;;;;;;10172284;28;20070;-59
2022/07/28 03:48:17;;;;;;;8.13;4.25;;;;;;;;;;10176889;28;20406;-59
2022/07/28 03:53:20;;;;;;;8.77;3.78;;;;;;;;;;10163930;28;20068;-58
2022/07/28 03:58:19;;;;;;;5.93;4.85;;;;;;;;;;10176549;28;20050;-59
2022/07/28 04:03:18;;;;;;;4.38;3.70;;;;;;;;;;10175652;28;20073;-58
2022/07/28 04:08:38;;;;;;;4.25;3.47;;;;;;;;;;10171142;28;20078;-58
2022/07/28 04:13:36;;;;;;;4.80;3.78;;;;;;;;;;10173197;28;20058;-58
2022/07/28 04:18:35;;;;;;;7.65;6.93;;;;;;;;;;10182368;28;20074;-59
2022/07/28 04:23:33;;;;;;;6.90;6.20;;;;;;;;;;10153861;28;20062;-59
2022/07/28 04:28:33;;;;;;;6.90;4.30;;;;;;;;;;10152987;28;20085;-59
2022/07/28 04:33:31;;;;;;;9.45;4.35;;;;;;;;;;10153693;28;20081;-59
2022/07/28 04:38:29;;;;;;;9.68;3.70;;;;;;;;;;10153269;28;20090;-59
2022/07/28 04:43:28;;;;;;;7.32;3.53;;;;;;;;;;10150900;28;20495;-58
2022/07/28 04:48:28;;;;;;;5.18;4.22;;;;;;;;;;10150800;28;20507;-58
2022/07/28 04:53:27;;;;;;;8.52;4.05;;;;;;;;;;10151651;28;20519;-58
2022/07/28 04:58:26;;;;;;;5.63;3.15;;;;;;;;;;10154552;28;20057;-58
2022/07/28 05:03:29;;;;;;;9.77;3.53;;;;;;;;;;10148857;28;20062;-58
2022/07/28 05:08:33;;;;;;;7.80;3.60;;;;;;;;;;10154054;28;20042;-59
2022/07/28 05:13:32;;;;;;;5.00;3.53;;;;;;;;;;10153390;28;20074;-59
2022/07/28 05:18:33;;;;;;;5.90;3.90;;;;;;;;;;10153471;28;20121;-59
2022/07/28 05:23:31;;;;;;;6.15;3.78;;;;;;;;;;10153634;28;20069;-59
2022/07/28 05:28:29;;;;;;;6.20;3.38;;;;;;;;;;10154396;28;20177;-58
2022/07/28 05:33:28;;;;;;;8.63;7.68;;;;;;;;;;10156016;28;20070;-58
2022/07/28 05:38:30;;;;;;;7.13;4.25;;;;;;;;;;10162573;28;20492;-59
2022/07/28 05:43:29;;;;;;;7.90;4.05;;;;;;;;;;10161942;28;20385;-60
2022/07/28 05:48:27;;;;;;;7.88;4.13;;;;;;;;;;10170877;28;20058;-59
2022/07/28 05:53:25;;;;;;;4.35;3.95;;;;;;;;;;10176611;28;20104;-60
2022/07/28 05:58:25;;;;;;;4.38;3.80;;;;;;;;;;10176801;28;20068;-60
2022/07/28 06:03:23;;;;;;;5.88;4.28;;;;;;;;;;10145607;28;20069;-60
2022/07/28 06:08:23;;;;;;;4.38;3.53;;;;;;;;;;10124628;28;20058;-60
2022/07/28 06:13:22;;;;;;;5.78;4.28;;;;;;;;;;10120654;28;20085;-60
2022/07/28 06:18:22;;;;;;;9.45;5.25;;;;;;;;;;10119619;28;20086;-60
2022/07/28 06:23:22;;;;;;;11.38;5.35;;;;;;;;;;10118748;28;20062;-60
2022/07/28 06:28:20;;;;;;;6.72;5.45;;;;;;;;;;10115916;28;20465;-59
2022/07/28 06:33:18;;;;;;;6.68;5.32;;;;;;;;;;10114724;28;20085;-58
2022/07/28 06:38:19;;;;;;;5.53;5.03;;;;;;;;;;10116886;28;20074;-59
2022/07/28 06:43:17;;;;;;;5.80;4.80;;;;;;;;;;10118732;28;20074;-59
2022/07/28 06:48:16;;;;;;;10.30;5.15;;;;;;;;;;10118748;28;20090;-60
2022/07/28 06:53:15;;;;;;;8.10;5.25;;;;;;;;;;10118464;28;20169;-59
2022/07/28 06:58:14;;;;;;;8.35;5.10;;;;;;;;;;10118791;28;20073;-60
2022/07/28 07:03:12;;;;;;;9.77;5.60;;;;;;;;;;10118402;28;20047;-59
2022/07/28 07:08:11;;;;;;;8.50;5.82;;;;;;;;;;10118011;28;20443;-60
2022/07/28 07:13:09;;;;;;;9.98;4.63;;;;;;;;;;10118613;28;20090;-60
2022/07/28 07:18:12;;;;;;;6.15;5.25;;;;;;;;;;10117877;28;20109;-61
2022/07/28 07:23:10;;;;;;;5.95;5.00;;;;;;;;;;10117282;28;20073;-60
2022/07/28 07:28:08;;;;;;;9.00;5.30;;;;;;;;;;10117645;28;20039;-60
2022/07/28 07:33:06;;;;;;;8.70;5.00;;;;;;;;;;10116778;28;20078;-60
2022/07/28 07:38:09;;;;;;;21.38;7.07;;;;;;;;;;10118287;28;20078;-61
2022/07/28 07:43:07;;;;;;;5.88;4.90;;;;;;;;;;10117874;28;20081;-61
2022/07/28 07:48:05;;;;;;;6.20;5.30;;;;;;;;;;10117587;28;20317;-59
2022/07/28 07:53:04;;;;;;;6.47;5.88;;;;;;;;;;10116844;28;20098;-60
2022/07/28 07:58:03;;;;;;;5.57;4.40;;;;;;;;;;10117373;28;20539;-61
2022/07/28 08:03:02;;;;;;;7.53;4.90;;;;;;;;;;10117480;28;20047;-61
2022/07/28 08:08:00;;;;;;;6.35;5.50;;;;;;;;;;10117020;28;20420;-60
2022/07/28 08:12:58;;;;;;;7.45;5.03;;;;;;;;;;10117321;28;20074;-61
2022/07/28 08:17:58;;;;;;;9.32;5.80;;;;;;;;;;10116338;28;20062;-60
2022/07/28 08:22:57;;;;;;;11.73;5.32;;;;;;;;;;10116810;28;20081;-59
2022/07/28 08:27:55;;;;;;;7.50;5.60;;;;;;;;;;10116113;28;20085;-59
2022/07/28 08:32:53;;;;;;;6.32;5.70;;;;;;;;;;10116564;28;20472;-59
2022/07/28 08:37:55;;;;;;;6.25;5.47;;;;;;;;;;10116416;28;20054;-61
2022/07/28 08:42:58;;;;;;;8.57;6.50;;;;;;;;;;10116134;28;20043;-59
2022/07/28 08:47:57;;;;;;;7.67;6.33;;;;;;;;;;10114866;28;20054;-59
2022/07/28 08:53:08;;;;;;;8.48;5.28;;;;;;;;;;10116002;28;20546;-59
2022/07/28 08:58:07;;;;;;;9.35;6.80;;;;;;;;;;10115065;28;20066;-60
2022/07/28 09:03:06;;;;;;;10.00;5.18;;;;;;;;;;10115764;28;20473;-59
2022/07/28 09:08:05;;;;;;;8.38;5.93;;;;;;;;;;10115495;28;20066;-60
2022/07/28 09:13:04;;;;;;;8.07;5.60;;;;;;;;;;10115640;28;20086;-59
2022/07/28 09:18:03;;;;;;;9.38;6.38;;;;;;;;;;10115509;28;20061;-60
2022/07/28 09:23:01;;;;;;;11.82;5.95;;;;;;;;;;10114935;28;20078;-61
2022/07/28 09:28:07;;;;;;;7.68;5.50;;;;;;;;;;10115418;28;20038;-61
2022/07/28 09:33:12;;;;;;;9.10;6.10;;;;;;;;;;10115171;28;20074;-61
2022/07/28 09:38:39;;;;;;;10.77;5.57;;;;;;;;;;10113758;28;20524;-60
2022/07/28 09:43:40;;;;;;;6.68;5.15;;;;;;;;;;10114084;28;20053;-60
2022/07/28 09:48:49;;;;;;;6.63;5.68;;;;;;;;;;10113819;28;20117;-61
2022/07/28 09:53:48;;;;;;;8.68;5.03;;;;;;;;;;10113824;28;20082;-61
2022/07/28 09:58:55;;;;;;;9.48;6.30;;;;;;;;;;10113563;28;20081;-61
2022/07/28 10:03:56;;;;;;;7.43;5.30;;;;;;;;;;10113728;28;20082;-60
2022/07/28 10:09:00;;;;;;;8.77;5.43;;;;;;;;;;10114641;28;20069;-61
2022/07/28 10:14:01;;;;;;;7.75;5.25;;;;;;;;;;10113413;28;20082;-60
2022/07/28 10:19:01;;;;;;;8.68;5.32;;;;;;;;;;10116243;28;20082;-60
2022/07/28 10:24:00;;;;;;;6.13;5.53;;;;;;;;;;10120630;28;20043;-60
2022/07/28 10:29:00;;;;;;;7.63;5.78;;;;;;;;;;10119952;28;20038;-61
2022/07/28 10:34:01;;;;;;;11.95;5.40;;;;;;;;;;10119809;28;20043;-60
2022/07/28 10:39:02;;;;;;;6.05;5.22;;;;;;;;;;10120356;28;20085;-59
2022/07/28 10:44:02;;;;;;;8.38;5.65;;;;;;;;;;10119236;28;20074;-60
2022/07/28 10:49:03;;;;;;;9.02;5.45;;;;;;;;;;10118947;28;20090;-60
2022/07/28 10:54:08;;;;;;;9.85;5.75;;;;;;;;;;10118727;28;20078;-60
2022/07/28 10:59:39;;;;;;;9.68;5.95;;;;;;;;;;10119097;28;20545;-60
2022/07/28 11:05:00;;;;;;;11.50;6.65;;;;;;;;;;10119038;28;20070;-60
2022/07/28 11:10:14;;;;;;;10.88;6.00;;;;;;;;;;10118954;28;20398;-60
2022/07/28 11:15:25;;;;;;;6.95;5.22;;;;;;;;;;10117984;28;20078;-59
2022/07/28 11:20:45;;;;;;;6.35;5.63;;;;;;;;;;10118997;28;20465;-61
2022/07/28 11:25:43;;;;;;;8.88;5.22;;;;;;;;;;10119119;28;20086;-60
2022/07/28 11:30:54;;;;;;;9.00;6.18;;;;;;;;;;10118536;28;20077;-60
2022/07/28 11:35:57;;;;;;;8.93;5.53;;;;;;;;;;10117825;28;20485;-60
2022/07/28 11:40:56;;;;;;;6.72;5.57;;;;;;;;;;10117750;28;20043;-60
2022/07/28 11:46:09;;;;;;;7.55;6.13;;;;;;;;;;10117430;28;20070;-60
2022/07/28 11:51:10;;;;;;;12.20;6.25;;;;;;;;;;10116630;28;20074;-61
2022/07/28 11:56:10;;;;;;;7.90;6.22;;;;;;;;;;10117911;28;20090;-61
2022/07/28 12:01:10;;;;;;;7.95;6.90;;;;;;;;;;10116967;28;20399;-61
2022/07/28 12:06:16;;;;;;;5.68;5.00;;;;;;;;;;10116691;28;20067;-61
2022/07/28 12:11:26;;;;;;;10.65;6.93;;;;;;;;;;10117304;28;20488;-60
2022/07/28 12:16:26;;;;;;;6.10;5.07;;;;;;;;;;10116100;28;20074;-59
2022/07/28 12:21:36;;;;;;;5.72;5.05;;;;;;;;;;10116562;28;20512;-59
2022/07/28 12:26:45;;;;;;;7.50;5.30;;;;;;;;;;10116094;28;20081;-59
2022/07/28 12:31:54;;;;;;;7.00;5.77;;;;;;;;;;10115876;28;20066;-60
2022/07/28 12:36:55;;;;;;;5.68;4.85;;;;;;;;;;10116388;28;20098;-61
2022/07/28 12:42:03;;;;;;;8.23;5.55;;;;;;;;;;10115912;28;20046;-62
2022/07/28 12:47:01;;;;;;;6.28;5.43;;;;;;;;;;10115942;28;20497;-61
2022/07/28 12:52:13;;;;;;;5.97;4.82;;;;;;;;;;10115779;28;20097;-60
2022/07/28 12:57:12;;;;;;;8.63;5.60;;;;;;;;;;10115035;28;20078;-60
2022/07/28 13:02:10;;;;;;;6.63;5.25;;;;;;;;;;10115763;28;20066;-60
2022/07/28 13:07:11;;;;;;;7.97;5.40;;;;;;;;;;10114041;28;20051;-60
2022/07/28 13:12:19;;;;;;;9.38;5.63;;;;;;;;;;10113986;28;20050;-60
2022/07/28 13:17:18;;;;;;;5.15;4.65;;;;;;;;;;10115092;28;20090;-60
2022/07/28 13:22:27;;;;;;;7.50;4.90;;;;;;;;;;10114934;28;20070;-60
2022/07/28 13:27:26;;;;;;;7.75;4.93;;;;;;;;;;10113674;28;20078;-60
2022/07/28 13:32:24;;;;;;;9.40;4.60;;;;;;;;;;10114543;28;20075;-61
2022/07/28 13:37:23;;;;;;;4.40;4.05;;;;;;;;;;10113263;28;20078;-61
2022/07/28 13:42:23;;;;;;;4.25;3.83;;;;;;;;;;10114492;28;20074;-60
2022/07/28 13:47:21;;;;;;;6.53;4.30;;;;;;;;;;10114420;28;20087;-62
2022/07/28 13:52:20;;;;;;;7.70;5.70;;;;;;;;;;10114336;28;20074;-61
2022/07/28 13:57:31;;;;;;;20.85;5.82;;;;;;;;;;10121964;28;20074;-61
2022/07/28 14:02:33;;;;;;;13.38;6.35;;;;;;;;;;10122244;28;20370;-61
2022/07/28 14:07:32;;;;;;;10.27;5.95;;;;;;;;;;10122401;28;20158;-61
2022/07/28 14:12:32;;;;;;;20.52;8.73;;;;;;;;;;10122251;28;20105;-59
2022/07/28 14:17:34;;;;;;;14.65;8.15;;;;;;;;;;10120635;28;20083;-60
2022/07/28 14:22:43;;;;;;;13.75;7.75;;;;;;;;;;10121862;28;20511;-59
2022/07/28 14:27:42;;;;;;;12.25;6.93;;;;;;;;;;10121741;28;20051;-60
2022/07/28 14:32:41;;;;;;;11.68;6.40;;;;;;;;;;10121658;28;20416;-59
2022/07/28 14:37:39;;;;;;;13.57;10.30;;;;;;;;;;10121806;28;20070;-59
2022/07/28 14:42:59;;;;;;;9.23;8.30;;;;;;;;;;10121400;28;20074;-60
2022/07/28 14:47:58;;;;;;;12.77;11.50;;;;;;;;;;10120770;28;20082;-61
2022/07/28 14:52:57;;;;;;;8.60;5.78;;;;;;;;;;10119760;28;20489;-60
2022/07/28 14:57:55;;;;;;;7.10;6.38;;;;;;;;;;10120056;28;20078;-59
2022/07/28 15:02:55;;;;;;;9.63;6.93;;;;;;;;;;10120636;28;20488;-61
2022/07/28 15:07:53;;;;;;;9.98;7.20;;;;;;;;;;10119983;28;20057;-60
2022/07/28 15:12:52;;;;;;;8.43;7.60;;;;;;;;;;10119731;28;20051;-59
2022/07/28 15:17:50;;;;;;;7.07;6.47;;;;;;;;;;10119438;28;20082;-59
2022/07/28 15:22:49;;;;;;;7.93;7.10;;;;;;;;;;10119819;28;20050;-59
2022/07/28 15:27:48;;;;;;;10.90;7.75;;;;;;;;;;10119905;28;20499;-61
2022/07/28 15:32:46;;;;;;;8.95;6.13;;;;;;;;;;10119720;28;20050;-61
2022/07/28 15:37:55;;;;;;;9.43;6.60;;;;;;;;;;10119221;28;20450;-60
2022/07/28 15:42:54;;;;;;;10.68;7.05;;;;;;;;;;10118903;28;20071;-60
2022/07/28 15:47:54;;;;;;;14.00;7.50;;;;;;;;;;10118467;28;20070;-59
2022/07/28 15:52:52;;;;;;;20.38;8.15;;;;;;;;;;10117922;28;20075;-60
2022/07/28 15:57:52;;;;;;;15.48;8.25;;;;;;;;;;10117869;28;20520;-60
2022/07/28 16:02:51;;;;;;;14.30;9.35;;;;;;;;;;10117632;28;20049;-59
2022/07/28 16:07:50;;;;;;;16.88;6.78;;;;;;;;;;10117987;28;20130;-60
2022/07/28 16:12:48;;;;;;;16.60;10.00;;;;;;;;;;10117355;28;20051;-60
2022/07/28 16:17:48;;;;;;;8.23;7.18;;;;;;;;;;10114515;28;20101;-60
2022/07/28 16:22:46;;;;;;;8.48;7.60;;;;;;;;;;10116976;28;20070;-60
2022/07/28 16:27:44;;;;;;;17.95;8.07;;;;;;;;;;10117245;28;20085;-62
2022/07/28 16:32:42;;;;;;;9.55;7.00;;;;;;;;;;10116873;28;20046;-60
2022/07/28 16:37:42;;;;;;;6.18;5.53;;;;;;;;;;10116803;28;20078;-60
2022/07/28 16:42:41;;;;;;;6.40;5.53;;;;;;;;;;10117126;28;20089;-61
2022/07/28 16:47:40;;;;;;;15.10;6.25;;;;;;;;;;10116234;28;20074;-60
2022/07/28 16:52:39;;;;;;;7.88;6.53;;;;;;;;;;10115855;28;20551;-59
2022/07/28 16:57:39;;;;;;;8.95;6.85;;;;;;;;;;10115899;28;20070;-59
2022/07/28 17:02:37;;;;;;;7.32;6.65;;;;;;;;;;10115606;28;20077;-58
2022/07/28 17:07:36;;;;;;;7.53;5.85;;;;;;;;;;10115675;28;20039;-58
2022/07/28 17:12:43;;;;;;;6.18;5.50;;;;;;;;;;10115885;28;20077;-59
2022/07/28 17:17:46;;;;;;;6.90;6.30;;;;;;;;;;10114462;28;20460;-59
2022/07/28 17:22:45;;;;;;;6.45;5.80;;;;;;;;;;10115073;28;20421;-59
2022/07/28 17:27:44;;;;;;;5.55;5.07;;;;;;;;;;10118957;28;20070;-59
2022/07/28 17:32:45;;;;;;;6.45;5.13;;;;;;;;;;10128885;28;20074;-59
2022/07/28 17:37:43;;;;;;;6.63;5.38;;;;;;;;;;10127808;28;20468;-59
2022/07/28 17:42:41;;;;;;;15.43;6.95;;;;;;;;;;10127930;28;20066;-60
2022/07/28 17:47:41;;;;;;;6.78;5.07;;;;;;;;;;10128351;28;20404;-59
2022/07/28 17:52:39;;;;;;;7.97;5.40;;;;;;;;;;10127928;28;20082;-59
2022/07/28 17:57:38;;;;;;;10.40;9.35;;;;;;;;;;10127743;28;20084;-59
2022/07/28 18:02:37;;;;;;;8.82;8.02;;;;;;;;;;10127749;28;20077;-59
2022/07/28 18:07:37;;;;;;;9.15;8.35;;;;;;;;;;10158674;28;20070;-59
2022/07/28 18:12:49;;;;;;;11.18;8.48;;;;;;;;;;10167272;28;20081;-59
2022/07/28 18:17:48;;;;;;;10.20;7.40;;;;;;;;;;10168193;28;20065;-57
2022/07/28 18:22:56;;;;;;;9.27;6.35;;;;;;;;;;10169989;28;20120;-57
2022/07/28 18:27:54;;;;;;;10.95;6.25;;;;;;;;;;10157221;28;20086;-57
2022/07/28 18:32:52;;;;;;;8.13;6.47;;;;;;;;;;10178383;28;20073;-57
2022/07/28 18:37:51;;;;;;;9.40;6.30;;;;;;;;;;10165148;28;20069;-58
2022/07/28 18:42:51;;;;;;;11.23;6.55;;;;;;;;;;10150979;28;20077;-57
2022/07/28 18:47:50;;;;;;;8.48;6.25;;;;;;;;;;10162205;28;20042;-58
2022/07/28 18:52:48;;;;;;;12.82;6.40;;;;;;;;;;10187041;28;20155;-58
2022/07/28 18:57:46;;;;;;;11.88;7.07;;;;;;;;;;10161819;28;20507;-58
2022/07/28 19:02:46;;;;;;;12.15;6.45;;;;;;;;;;10164235;28;20077;-59
2022/07/28 19:07:44;;;;;;;10.80;7.30;;;;;;;;;;10150619;28;20073;-57
2022/07/28 19:12:43;;;;;;;12.95;6.82;;;;;;;;;;10156729;28;20073;-59
2022/07/28 19:17:41;;;;;;;6.30;5.70;;;;;;;;;;10175115;28;20064;-59
2022/07/28 19:22:41;;;;;;;8.10;6.68;;;;;;;;;;10189589;28;20065;-57
2022/07/28 19:27:39;;;;;;;7.97;6.07;;;;;;;;;;10173008;28;20514;-58
2022/07/28 19:32:40;;;;;;;7.45;6.57;;;;;;;;;;10183237;28;20458;-57
2022/07/28 19:37:38;;;;;;;8.15;6.10;;;;;;;;;;10170062;28;20073;-57
2022/07/28 19:42:38;;;;;;;11.98;6.00;;;;;;;;;;10171890;28;20065;-57
2022/07/28 19:47:37;;;;;;;8.18;5.88;;;;;;;;;;10139217;28;20052;-57
2022/07/28 19:52:36;;;;;;;7.50;6.03;;;;;;;;;;10172732;28;20053;-58
2022/07/28 19:57:34;;;;;;;6.15;5.40;;;;;;;;;;10156963;28;20121;-56
2022/07/28 20:02:34;;;;;;;8.93;5.25;;;;;;;;;;10157198;28;20696;-58
2022/07/28 20:07:32;;;;;;;6.50;4.45;;;;;;;;;;10156825;28;20061;-58
2022/07/28 20:12:31;;;;;;;5.43;4.93;;;;;;;;;;10166068;28;20065;-58
2022/07/28 20:17:35;;;;;;;5.90;5.30;;;;;;;;;;10164604;28;20081;-58
2022/07/28 20:22:37;;;;;;;7.80;5.65;;;;;;;;;;10176092;28;20073;-57
2022/07/28 20:27:35;;;;;;;6.28;5.20;;;;;;;;;;10190057;28;20101;-57
2022/07/28 20:32:39;;;;;;;7.15;4.80;;;;;;;;;;10131673;28;20070;-57
2022/07/28 20:37:39;;;;;;;7.07;6.05;;;;;;;;;;10156228;28;20514;-57
2022/07/28 20:42:37;;;;;;;5.85;5.35;;;;;;;;;;10155494;28;20074;-57
2022/07/28 20:47:36;;;;;;;9.95;5.45;;;;;;;;;;10155746;28;20042;-57
2022/07/28 20:52:35;;;;;;;11.05;5.20;;;;;;;;;;10155536;28;20484;-58
2022/07/28 20:57:34;;;;;;;6.90;6.00;;;;;;;;;;10156683;28;20062;-56
2022/07/28 21:02:32;;;;;;;12.75;6.18;;;;;;;;;;10194716;28;20042;-57
2022/07/28 21:07:30;;;;;;;10.55;6.03;;;;;;;;;;10194294;28;20518;-56
2022/07/28 21:12:50;;;;;;;8.82;5.50;;;;;;;;;;10194802;28;20415;-56
2022/07/28 21:17:48;;;;;;;10.75;5.75;;;;;;;;;;10193593;28;20551;-58
2022/07/28 21:22:46;;;;;;;6.20;5.35;;;;;;;;;;10193352;28;20475;-58
2022/07/28 21:33:01;;;;;;;8.85;5.10;;;;;;;;;;10194381;28;20076;-58
2022/07/28 21:38:00;;;;;;;7.68;5.35;;;;;;;;;;10193966;28;20535;-58
2022/07/28 21:42:58;;;;;;;5.88;5.38;;;;;;;;;;10194379;28;20307;-58
2022/07/28 21:47:57;;;;;;;8.40;5.88;;;;;;;;;;10193844;28;20045;-58
2022/07/28 21:52:56;;;;;;;8.73;5.70;;;;;;;;;;10193952;28;20529;-58
2022/07/28 21:57:54;;;;;;;11.68;5.90;;;;;;;;;;10194021;28;20080;-57
2022/07/28 22:02:53;;;;;;;7.30;6.03;;;;;;;;;;10194158;28;20049;-57
2022/07/28 22:07:51;;;;;;;6.32;5.47;;;;;;;;;;10193859;28;20069;-58
2022/07/28 22:12:51;;;;;;;8.02;5.90;;;;;;;;;;10193726;28;20050;-58
2022/07/28 22:17:49;;;;;;;14.60;6.15;;;;;;;;;;10190572;28;20494;-56
2022/07/28 22:22:47;;;;;;;8.57;5.97;;;;;;;;;;10180683;28;20510;-57
2022/07/28 22:27:45;;;;;;;12.48;6.53;;;;;;;;;;10178055;28;20511;-56
2022/07/28 22:32:45;;;;;;;6.10;5.57;;;;;;;;;;10168205;28;20073;-58
2022/07/28 22:37:44;;;;;;;7.50;5.40;;;;;;;;;;10160538;28;20077;-58
2022/07/28 22:42:43;;;;;;;8.80;5.55;;;;;;;;;;10160485;28;20085;-57
2022/07/28 22:47:42;;;;;;;8.02;5.45;;;;;;;;;;10159817;28;20038;-57
2022/07/28 22:52:41;;;;;;;9.30;6.15;;;;;;;;;;10160426;28;20069;-57
2022/07/28 22:57:39;;;;;;;8.93;5.72;;;;;;;;;;10160207;28;20074;-57
2022/07/28 23:02:38;;;;;;;10.25;5.35;;;;;;;;;;10162449;28;20074;-58
2022/07/28 23:07:38;;;;;;;7.13;6.38;;;;;;;;;;10159684;28;20500;-57
2022/07/28 23:12:56;;;;;;;10.13;6.28;;;;;;;;;;10159865;28;20397;-56
2022/07/28 23:17:55;;;;;;;11.90;7.13;;;;;;;;;;10159131;28;20078;-58
2022/07/28 23:22:54;;;;;;;8.00;5.93;;;;;;;;;;10159316;28;20488;-58
2022/07/28 23:27:52;;;;;;;8.30;6.07;;;;;;;;;;10158778;28;20491;-58
2022/07/28 23:32:52;;;;;;;8.77;7.00;;;;;;;;;;10159158;28;20047;-58
2022/07/28 23:37:50;;;;;;;10.15;7.22;;;;;;;;;;10159498;28;20078;-58
2022/07/28 23:42:48;;;;;;;12.98;7.22;;;;;;;;;;10158365;28;20080;-58
2022/07/28 23:47:46;;;;;;;10.48;6.63;;;;;;;;;;10158461;28;20042;-58
2022/07/28 23:52:46;;;;;;;9.95;6.90;;;;;;;;;;10157834;28;20365;-58
2022/07/28 23:57:44;;;;;;;11.20;6.60;;;;;;;;;;10158002;28;20084;-58
